Terminal Aerodrome Forecast
Issued by NWS

Home | Current Version | Previous Version | Graphics & Text | Print | Product List | Glossary On
Versions: 1 2 3 4 5 6 7 8 9 10 11 12 13 14 15 16 17 18 19 20
000
FTUS43 KLSX 161100
TAFSUS
TAF
KSUS 161135Z 1612/1712 29017G27KT P6SM OVC012
      TEMPO 1612/1614 -RA
     FM162200 30013G22KT P6SM OVC025
     FM170000 30009KT P6SM OVC025
     FM170600 30005KT P6SM BKN250=

USA.gov is the U.S. government's official web portal to all federal, state and local government web resources and services.